createdAt,value
2023-02-19T00:02:07.541Z,23.30
2023-02-19T00:04:36.511Z,23.30
2023-02-19T00:07:05.406Z,23.30
2023-02-19T00:09:34.280Z,23.40
2023-02-19T00:12:03.828Z,23.40
2023-02-19T00:14:32.750Z,23.50
2023-02-19T00:17:01.642Z,23.60
2023-02-19T00:19:30.917Z,23.60
2023-02-19T00:21:59.938Z,23.70
2023-02-19T00:24:28.846Z,23.70
2023-02-19T00:26:57.704Z,23.80
2023-02-19T00:29:26.740Z,23.80
2023-02-19T00:31:55.797Z,23.90
2023-02-19T00:34:24.796Z,23.90
2023-02-19T00:36:53.711Z,23.90
2023-02-19T00:39:22.653Z,24.00
2023-02-19T00:41:51.774Z,24.00
2023-02-19T00:44:20.866Z,24.10
2023-02-19T00:46:50.190Z,24.10
2023-02-19T00:49:25.485Z,24.10
2023-02-19T00:51:55.084Z,24.20
2023-02-19T00:54:24.238Z,24.20
2023-02-19T00:56:53.653Z,24.20
2023-02-19T00:59:22.550Z,24.20
2023-02-19T01:01:51.516Z,24.20
2023-02-19T01:04:20.666Z,24.30
2023-02-19T01:06:50.089Z,24.30
2023-02-19T01:09:19.201Z,24.40
2023-02-19T01:11:48.488Z,24.50
2023-02-19T01:14:17.552Z,24.60
2023-02-19T01:16:46.501Z,24.60
2023-02-19T01:19:15.774Z,24.70
2023-02-19T01:21:44.881Z,24.80
2023-02-19T01:24:13.780Z,24.90
2023-02-19T01:26:42.773Z,25.00
2023-02-19T01:29:12.174Z,25.10
2023-02-19T01:31:46.064Z,25.30
2023-02-19T01:34:15.058Z,25.40
2023-02-19T01:36:44.144Z,25.50
2023-02-19T01:39:13.462Z,25.60
2023-02-19T01:41:43.600Z,25.80
2023-02-19T01:44:19.587Z,26.00
2023-02-19T01:46:49.634Z,26.10
2023-02-19T01:49:28.452Z,26.20
2023-02-19T01:52:00.453Z,26.30
2023-02-19T01:54:33.878Z,26.40
2023-02-19T01:57:06.139Z,26.40
2023-02-19T01:59:35.809Z,26.50
2023-02-19T02:02:04.811Z,26.50
2023-02-19T02:04:35.391Z,26.60
2023-02-19T02:07:29.315Z,26.60
2023-02-19T02:10:16.784Z,26.70
2023-02-19T02:12:45.704Z,26.90
2023-02-19T02:15:15.261Z,27.00
2023-02-19T02:18:08.177Z,27.20
2023-02-19T02:20:46.039Z,27.30
2023-02-19T02:23:27.676Z,27.40
2023-02-19T02:26:32.002Z,27.60
2023-02-19T02:29:25.851Z,27.80
2023-02-19T02:32:27.941Z,28.00
2023-02-19T02:35:07.100Z,28.10
2023-02-19T02:37:40.125Z,28.20
2023-02-19T02:40:11.580Z,28.40
2023-02-19T02:42:41.606Z,28.50
2023-02-19T02:45:37.639Z,28.50
2023-02-19T02:48:43.907Z,28.60
2023-02-19T02:51:23.187Z,28.60
2023-02-19T02:54:30.945Z,28.70
2023-02-19T02:57:01.137Z,28.80
2023-02-19T02:59:37.211Z,28.90
2023-02-19T03:02:28.198Z,29.00
2023-02-19T03:05:39.069Z,29.10
2023-02-19T03:08:25.409Z,29.30
2023-02-19T03:11:25.136Z,29.50
2023-02-19T03:14:37.734Z,29.50
2023-02-19T03:17:53.341Z,29.80
2023-02-19T03:20:25.019Z,29.90
2023-02-19T03:22:57.294Z,30.00
2023-02-19T03:25:47.553Z,30.20
2023-02-19T03:28:20.127Z,30.30
2023-02-19T03:30:55.346Z,30.40
2023-02-19T03:33:28.622Z,30.50
2023-02-19T03:36:08.007Z,30.60
2023-02-19T03:38:49.640Z,30.70
2023-02-19T03:41:52.262Z,30.70
2023-02-19T03:44:31.873Z,30.80
2023-02-19T03:47:10.009Z,31.00
2023-02-19T03:49:51.064Z,31.10
2023-02-19T03:52:33.811Z,31.10
2023-02-19T03:55:29.383Z,31.30
2023-02-19T03:58:11.726Z,31.40
2023-02-19T04:00:58.774Z,31.50
2023-02-19T04:03:48.566Z,31.60
2023-02-19T04:06:23.815Z,31.60
2023-02-19T04:08:57.633Z,31.70
2023-02-19T04:11:29.021Z,31.80
2023-02-19T04:14:34.230Z,31.80
2023-02-19T04:17:15.360Z,31.80
2023-02-19T04:19:44.961Z,31.90
2023-02-19T04:22:14.653Z,32.00
2023-02-19T04:24:50.261Z,32.10
2023-02-19T04:27:19.604Z,32.20
2023-02-19T04:29:48.500Z,32.20
2023-02-19T04:32:17.525Z,32.20
2023-02-19T04:34:46.424Z,32.20
2023-02-19T04:37:15.793Z,32.30
2023-02-19T04:39:44.735Z,32.20
2023-02-19T04:42:13.633Z,32.40
2023-02-19T04:44:42.578Z,32.50
2023-02-19T04:47:11.840Z,32.60
2023-02-19T04:49:40.734Z,32.70
2023-02-19T04:52:09.631Z,32.70
2023-02-19T04:54:38.536Z,32.80
2023-02-19T04:57:07.473Z,32.70
2023-02-19T04:59:36.587Z,32.80
2023-02-19T05:02:05.514Z,32.90
2023-02-19T05:04:34.575Z,32.90
2023-02-19T05:07:03.509Z,33.10
2023-02-19T05:09:32.552Z,33.10
2023-02-19T05:12:01.757Z,33.20
2023-02-19T05:14:30.785Z,33.30
2023-02-19T05:16:59.790Z,33.20
2023-02-19T05:19:28.739Z,33.20
2023-02-19T05:21:57.634Z,33.30
2023-02-19T05:24:27.957Z,33.30
2023-02-19T05:26:57.200Z,33.30
2023-02-19T05:29:26.108Z,33.30
2023-02-19T05:31:55.128Z,33.40
2023-02-19T05:34:24.173Z,33.50
2023-02-19T05:36:53.147Z,33.50
2023-02-19T05:39:22.109Z,33.60
2023-02-19T05:41:51.028Z,33.50
2023-02-19T05:44:19.932Z,33.50
2023-02-19T05:46:48.949Z,33.70
2023-02-19T05:49:17.926Z,33.70
2023-02-19T05:51:47.045Z,33.80
2023-02-19T05:54:15.908Z,33.80
2023-02-19T05:56:45.102Z,33.90
2023-02-19T05:59:22.688Z,33.90
2023-02-19T06:01:53.738Z,33.90
2023-02-19T06:04:22.724Z,33.80
2023-02-19T06:06:52.222Z,33.80
2023-02-19T06:09:21.123Z,33.80
2023-02-19T06:11:50.036Z,33.80
2023-02-19T06:14:19.244Z,33.90
2023-02-19T06:16:48.173Z,33.80
2023-02-19T06:19:17.163Z,33.70
2023-02-19T06:21:46.028Z,33.80
2023-02-19T06:24:14.942Z,33.80
2023-02-19T06:26:43.909Z,33.80
2023-02-19T06:29:12.795Z,33.80
2023-02-19T06:31:41.850Z,33.80
2023-02-19T06:34:15.678Z,33.70
2023-02-19T06:36:45.673Z,33.80
2023-02-19T06:39:14.559Z,33.90
2023-02-19T06:41:43.605Z,34.00
2023-02-19T06:44:12.782Z,34.10
2023-02-19T06:46:41.781Z,34.20
2023-02-19T06:49:10.863Z,34.20
2023-02-19T06:51:39.787Z,34.30
2023-02-19T06:54:08.837Z,34.30
2023-02-19T06:56:40.720Z,34.20
2023-02-19T06:59:15.154Z,34.20
2023-02-19T07:01:44.462Z,34.10
2023-02-19T07:04:14.067Z,33.90
2023-02-19T07:06:43.040Z,33.90
2023-02-19T07:09:12.492Z,33.90
2023-02-19T07:11:42.037Z,33.90
2023-02-19T07:14:16.543Z,34.00
2023-02-19T07:16:48.392Z,34.00
2023-02-19T07:19:17.659Z,34.10
2023-02-19T07:21:46.579Z,34.10
2023-02-19T07:24:15.704Z,34.00
2023-02-19T07:26:44.586Z,34.00
2023-02-19T07:29:13.516Z,34.00
2023-02-19T07:31:42.589Z,34.10
2023-02-19T07:34:11.496Z,34.10
2023-02-19T07:36:40.457Z,34.10
2023-02-19T07:39:10.235Z,34.10
2023-02-19T07:41:39.181Z,34.10
2023-02-19T07:44:08.235Z,34.20
2023-02-19T07:46:37.147Z,34.20
2023-02-19T07:49:08.459Z,34.30
2023-02-19T07:51:37.490Z,34.30
2023-02-19T07:54:06.488Z,34.30
2023-02-19T07:56:35.421Z,34.30
2023-02-19T07:59:04.332Z,34.40
2023-02-19T08:01:51.594Z,34.40
2023-02-19T08:04:20.490Z,34.30
2023-02-19T08:06:49.538Z,34.30
2023-02-19T08:09:18.470Z,34.30
2023-02-19T08:12:05.755Z,34.20
2023-02-19T08:14:34.962Z,34.20
2023-02-19T08:17:04.491Z,34.10
2023-02-19T08:19:33.429Z,34.20
2023-02-19T08:22:02.406Z,34.10
2023-02-19T08:24:32.571Z,34.10
2023-02-19T08:27:01.557Z,34.00
2023-02-19T08:29:30.448Z,33.90
2023-02-19T08:31:59.402Z,33.70
2023-02-19T08:34:28.340Z,33.60
2023-02-19T08:36:57.280Z,33.50
2023-02-19T08:39:26.219Z,33.50
2023-02-19T08:41:55.164Z,33.50
2023-02-19T08:44:24.306Z,33.50
2023-02-19T08:46:53.897Z,33.50
2023-02-19T08:49:22.865Z,33.60
2023-02-19T08:51:51.911Z,33.60
2023-02-19T08:54:20.819Z,33.60
2023-02-19T08:56:49.743Z,33.60
2023-02-19T08:59:20.312Z,33.70
2023-02-19T09:01:49.410Z,33.70
2023-02-19T09:04:18.360Z,33.80
2023-02-19T09:06:47.297Z,33.80
2023-02-19T09:09:16.269Z,33.80
2023-02-19T09:11:45.667Z,33.70
2023-02-19T09:14:15.416Z,33.60
2023-02-19T09:16:44.846Z,33.60
2023-02-19T09:19:13.952Z,33.50
2023-02-19T09:21:44.301Z,33.40
2023-02-19T09:24:13.157Z,33.40
2023-02-19T09:26:42.076Z,33.30
2023-02-19T09:29:11.260Z,33.20
2023-02-19T09:31:40.205Z,33.20
2023-02-19T09:34:09.700Z,33.10
2023-02-19T09:36:39.082Z,33.10
2023-02-19T09:39:09.820Z,33.00
2023-02-19T09:41:48.001Z,32.80
2023-02-19T09:44:37.568Z,32.70
2023-02-19T09:47:17.716Z,32.60
2023-02-19T09:49:53.267Z,32.50
2023-02-19T09:53:01.221Z,32.40
2023-02-19T09:55:33.153Z,32.30
2023-02-19T09:58:05.123Z,32.20
2023-02-19T10:00:37.581Z,32.10
2023-02-19T10:03:23.140Z,32.00
2023-02-19T10:05:52.148Z,32.00
2023-02-19T10:08:22.984Z,31.90
2023-02-19T10:10:52.458Z,31.90
2023-02-19T10:13:24.260Z,31.80
2023-02-19T10:15:58.662Z,31.70
2023-02-19T10:18:30.623Z,31.70
2023-02-19T10:20:59.821Z,31.60
2023-02-19T10:23:29.153Z,31.60
2023-02-19T10:26:00.421Z,31.50
2023-02-19T10:28:32.274Z,31.50
2023-02-19T10:31:07.205Z,31.40
2023-02-19T10:33:48.910Z,31.30
2023-02-19T10:36:33.108Z,31.30
2023-02-19T10:39:27.851Z,31.20
2023-02-19T10:41:56.896Z,31.10
2023-02-19T10:44:34.211Z,31.00
2023-02-19T10:47:06.193Z,30.90
2023-02-19T10:49:40.145Z,30.80
2023-02-19T10:52:33.055Z,30.70
2023-02-19T10:55:21.993Z,30.60
2023-02-19T10:57:54.600Z,30.50
2023-02-19T11:00:28.100Z,30.40
2023-02-19T11:03:15.963Z,30.30
2023-02-19T11:06:07.702Z,30.10
2023-02-19T11:08:50.897Z,30.00
2023-02-19T11:11:40.710Z,29.90
2023-02-19T11:14:25.326Z,29.80
2023-02-19T11:16:59.609Z,29.70
2023-02-19T11:19:28.546Z,29.60
2023-02-19T11:21:58.736Z,29.50
2023-02-19T11:24:41.666Z,29.50
2023-02-19T11:27:26.091Z,29.40
2023-02-19T11:29:55.166Z,29.30
2023-02-19T11:32:31.972Z,29.20
2023-02-19T11:35:27.267Z,29.20
2023-02-19T11:38:03.642Z,29.10
2023-02-19T11:40:50.636Z,29.00
2023-02-19T11:43:41.088Z,28.90
2023-02-19T11:46:32.730Z,28.90
2023-02-19T11:49:05.489Z,28.80
2023-02-19T11:52:01.323Z,28.70
2023-02-19T11:54:36.667Z,28.60
2023-02-19T11:57:23.668Z,28.50
2023-02-19T12:00:14.141Z,28.50
2023-02-19T12:03:18.221Z,28.40
2023-02-19T12:06:14.838Z,28.30
2023-02-19T12:09:04.114Z,28.30
2023-02-19T12:11:58.933Z,28.30
2023-02-19T12:14:44.427Z,28.20
2023-02-19T12:17:43.921Z,28.10
2023-02-19T12:20:49.436Z,28.10
2023-02-19T12:23:51.904Z,28.00
2023-02-19T12:26:24.384Z,27.90
2023-02-19T12:28:59.378Z,27.90
2023-02-19T12:31:58.939Z,27.80
2023-02-19T12:34:45.901Z,27.80
2023-02-19T12:37:33.043Z,27.70
2023-02-19T12:40:29.160Z,27.70
2023-02-19T12:43:19.168Z,27.60
2023-02-19T12:46:06.350Z,27.60
2023-02-19T12:48:54.061Z,27.60
2023-02-19T12:51:27.233Z,27.60
2023-02-19T12:54:14.379Z,27.50
2023-02-19T12:56:52.058Z,27.50
2023-02-19T12:59:40.548Z,27.50
2023-02-19T13:02:16.663Z,27.40
2023-02-19T13:05:06.345Z,27.40
2023-02-19T13:07:39.330Z,27.40
2023-02-19T13:10:43.109Z,27.30
2023-02-19T13:13:31.501Z,27.30
2023-02-19T13:16:16.151Z,27.30
2023-02-19T13:19:00.070Z,27.20
2023-02-19T13:21:52.758Z,27.20
2023-02-19T13:24:29.174Z,27.20
2023-02-19T13:27:29.629Z,27.10
2023-02-19T13:30:29.197Z,27.10
2023-02-19T13:33:22.817Z,27.00
2023-02-19T13:36:13.866Z,27.00
2023-02-19T13:38:46.568Z,26.90
2023-02-19T13:41:40.812Z,26.90
2023-02-19T13:44:21.910Z,26.80
2023-02-19T13:46:52.828Z,26.80
2023-02-19T13:49:30.744Z,26.80
2023-02-19T13:52:23.685Z,26.70
2023-02-19T13:54:52.628Z,26.70
2023-02-19T13:57:30.634Z,26.60
2023-02-19T14:00:01.210Z,26.60
2023-02-19T14:02:32.951Z,26.50
2023-02-19T14:05:13.260Z,26.50
2023-02-19T14:07:57.252Z,26.50
2023-02-19T14:10:50.480Z,26.40
2023-02-19T14:13:51.948Z,26.40
2023-02-19T14:16:38.903Z,26.30
2023-02-19T14:19:37.666Z,26.30
2023-02-19T14:22:44.679Z,26.30
2023-02-19T14:25:34.901Z,26.20
2023-02-19T14:28:28.384Z,26.20
2023-02-19T14:31:02.138Z,26.10
2023-02-19T14:33:33.872Z,26.10
2023-02-19T14:36:20.017Z,26.00
2023-02-19T14:39:05.311Z,26.00
2023-02-19T14:41:39.782Z,25.90
2023-02-19T14:44:26.068Z,25.90
2023-02-19T14:47:08.083Z,25.80
2023-02-19T14:49:48.776Z,25.80
2023-02-19T14:52:27.127Z,25.80
2023-02-19T14:55:02.504Z,25.70
2023-02-19T14:57:34.741Z,25.70
2023-02-19T15:00:21.255Z,25.70
2023-02-19T15:02:52.418Z,25.60
2023-02-19T15:05:28.296Z,25.60
2023-02-19T15:08:03.449Z,25.60
2023-02-19T15:10:34.867Z,25.50
2023-02-19T15:13:07.457Z,25.50
2023-02-19T15:15:41.197Z,25.50
2023-02-19T15:18:19.004Z,25.50
2023-02-19T15:20:48.800Z,25.40
2023-02-19T15:23:27.442Z,25.40
2023-02-19T15:25:56.373Z,25.30
2023-02-19T15:28:28.350Z,25.30
2023-02-19T15:31:00.270Z,25.20
2023-02-19T15:33:29.659Z,25.20
2023-02-19T15:36:02.293Z,25.10
2023-02-19T15:38:31.690Z,25.10
2023-02-19T15:41:01.127Z,25.10
2023-02-19T15:43:50.972Z,25.00
2023-02-19T15:46:23.922Z,25.00
2023-02-19T15:49:15.733Z,25.00
2023-02-19T15:52:02.335Z,24.90
2023-02-19T15:54:53.915Z,24.90
2023-02-19T15:57:32.288Z,24.80
2023-02-19T16:00:20.548Z,24.80
2023-02-19T16:02:50.973Z,24.70
2023-02-19T16:05:31.259Z,24.70
2023-02-19T16:08:10.461Z,24.60
2023-02-19T16:10:40.157Z,24.60
2023-02-19T16:13:09.609Z,24.60
2023-02-19T16:15:40.329Z,24.60
2023-02-19T16:18:16.405Z,24.50
2023-02-19T16:20:49.434Z,24.50
2023-02-19T16:23:23.094Z,24.50
2023-02-19T16:26:02.844Z,24.40
2023-02-19T16:28:40.000Z,24.40
2023-02-19T16:31:11.924Z,24.30
2023-02-19T16:33:47.503Z,24.30
2023-02-19T16:36:37.263Z,24.30
2023-02-19T16:39:09.276Z,24.30
2023-02-19T16:41:50.580Z,24.20
2023-02-19T16:44:36.686Z,24.20
2023-02-19T16:47:30.979Z,24.20
2023-02-19T16:50:02.062Z,24.10
2023-02-19T16:52:31.255Z,24.10
2023-02-19T16:55:00.183Z,24.10
2023-02-19T16:57:29.136Z,24.00
2023-02-19T16:59:58.024Z,24.00
2023-02-19T17:02:27.281Z,23.90
2023-02-19T17:04:56.789Z,23.90
2023-02-19T17:07:27.104Z,23.90
2023-02-19T17:09:55.991Z,23.80
2023-02-19T17:12:25.209Z,23.80
2023-02-19T17:14:54.103Z,23.80
2023-02-19T17:17:23.025Z,23.70
2023-02-19T17:19:52.050Z,23.70
2023-02-19T17:22:20.964Z,23.70
2023-02-19T17:24:50.456Z,23.70
2023-02-19T17:27:19.371Z,23.70
2023-02-19T17:29:48.263Z,23.70
2023-02-19T17:32:17.240Z,23.60
2023-02-19T17:34:50.477Z,23.60
2023-02-19T17:37:19.432Z,23.60
2023-02-19T17:39:48.341Z,23.50
2023-02-19T17:42:17.237Z,23.50
2023-02-19T17:44:47.812Z,23.50
2023-02-19T17:47:16.757Z,23.40
2023-02-19T17:49:45.616Z,23.40
2023-02-19T17:52:18.737Z,23.40
2023-02-19T17:54:48.675Z,23.40
2023-02-19T17:57:17.574Z,23.40
2023-02-19T17:59:46.422Z,23.40
2023-02-19T18:02:15.337Z,23.30
2023-02-19T18:04:44.203Z,23.30
2023-02-19T18:07:13.101Z,23.30
2023-02-19T18:09:42.273Z,23.20
2023-02-19T18:12:11.410Z,23.20
2023-02-19T18:14:40.297Z,23.20
2023-02-19T18:17:09.226Z,23.20
2023-02-19T18:19:38.131Z,23.10
2023-02-19T18:22:07.033Z,23.10
2023-02-19T18:24:35.937Z,23.10
2023-02-19T18:27:04.956Z,23.00
2023-02-19T18:29:35.122Z,23.00
2023-02-19T18:32:04.208Z,23.00
2023-02-19T18:34:33.206Z,23.00
2023-02-19T18:37:02.263Z,23.00
2023-02-19T18:39:32.251Z,22.90
2023-02-19T18:42:02.180Z,22.90
2023-02-19T18:44:31.092Z,22.80
2023-02-19T18:46:59.937Z,22.80
2023-02-19T18:49:30.695Z,22.80
2023-02-19T18:52:03.129Z,22.80
2023-02-19T18:54:32.919Z,22.80
2023-02-19T18:57:02.912Z,22.80
2023-02-19T18:59:32.620Z,22.70
2023-02-19T19:02:01.992Z,22.70
2023-02-19T19:04:30.938Z,22.70
2023-02-19T19:06:59.901Z,22.70
2023-02-19T19:09:28.780Z,22.60
2023-02-19T19:11:57.746Z,22.60
2023-02-19T19:14:26.672Z,22.60
2023-02-19T19:16:55.560Z,22.60
2023-02-19T19:19:24.487Z,22.60
2023-02-19T19:21:54.899Z,22.50
2023-02-19T19:24:26.141Z,22.50
2023-02-19T19:26:55.346Z,22.50
2023-02-19T19:29:24.715Z,22.50
2023-02-19T19:31:53.698Z,22.40
2023-02-19T19:34:22.967Z,22.40
2023-02-19T19:36:51.836Z,22.30
2023-02-19T19:39:20.763Z,22.30
2023-02-19T19:41:55.911Z,22.30
2023-02-19T19:44:25.361Z,22.30
2023-02-19T19:46:56.476Z,22.20
2023-02-19T19:49:25.545Z,22.20
2023-02-19T19:51:55.141Z,22.20
2023-02-19T19:54:25.494Z,22.20
2023-02-19T19:56:54.464Z,22.10
2023-02-19T19:59:24.190Z,22.10
2023-02-19T20:01:58.907Z,22.10
2023-02-19T20:04:27.914Z,22.10
2023-02-19T20:06:56.909Z,22.10
2023-02-19T20:09:26.701Z,22.00
2023-02-19T20:11:55.710Z,22.00
2023-02-19T20:14:25.950Z,22.00
2023-02-19T20:16:56.255Z,22.00
2023-02-19T20:19:25.713Z,21.90
2023-02-19T20:21:55.421Z,21.90
2023-02-19T20:24:27.332Z,21.90
2023-02-19T20:27:01.186Z,21.90
2023-02-19T20:29:32.376Z,21.90
2023-02-19T20:32:03.589Z,21.80
2023-02-19T20:34:32.930Z,21.80
2023-02-19T20:37:01.911Z,21.80
2023-02-19T20:39:31.005Z,21.80
2023-02-19T20:42:00.880Z,21.80
2023-02-19T20:44:30.971Z,21.70
2023-02-19T20:47:01.460Z,21.80
2023-02-19T20:49:32.215Z,21.80
2023-02-19T20:52:06.184Z,21.70
2023-02-19T20:54:36.793Z,21.70
2023-02-19T20:57:07.258Z,21.70
2023-02-19T20:59:37.032Z,21.70
2023-02-19T21:02:09.178Z,21.60
2023-02-19T21:04:40.697Z,21.60
2023-02-19T21:07:09.596Z,21.60
2023-02-19T21:09:38.468Z,21.60
2023-02-19T21:12:07.745Z,21.60
2023-02-19T21:14:36.664Z,21.60
2023-02-19T21:17:06.730Z,21.50
2023-02-19T21:19:35.693Z,21.50
2023-02-19T21:22:04.608Z,21.50
2023-02-19T21:24:33.923Z,21.50
2023-02-19T21:27:02.924Z,21.50
2023-02-19T21:29:31.807Z,21.50
2023-02-19T21:32:00.848Z,21.40
2023-02-19T21:34:32.462Z,21.40
2023-02-19T21:37:01.394Z,21.40
2023-02-19T21:39:32.306Z,21.40
2023-02-19T21:42:01.393Z,21.40
2023-02-19T21:44:30.274Z,21.40
2023-02-19T21:46:59.294Z,21.40
2023-02-19T21:49:28.495Z,21.40
2023-02-19T21:51:57.394Z,21.30
2023-02-19T21:54:27.166Z,21.30
2023-02-19T21:56:56.653Z,21.30
2023-02-19T21:59:25.806Z,21.30
2023-02-19T22:01:54.786Z,21.30
2023-02-19T22:04:25.637Z,21.20
2023-02-19T22:06:57.697Z,21.20
2023-02-19T22:09:26.666Z,21.20
2023-02-19T22:11:55.581Z,21.20
2023-02-19T22:14:24.803Z,21.20
2023-02-19T22:16:53.712Z,21.20
2023-02-19T22:19:22.763Z,21.20
2023-02-19T22:21:51.724Z,21.10
2023-02-19T22:24:22.959Z,21.10
2023-02-19T22:26:56.782Z,21.10
2023-02-19T22:29:26.125Z,21.10
2023-02-19T22:31:55.389Z,21.10
2023-02-19T22:34:24.747Z,21.00
2023-02-19T22:36:53.809Z,21.00
2023-02-19T22:39:26.871Z,21.00
2023-02-19T22:41:56.046Z,21.00
2023-02-19T22:44:25.010Z,21.00
2023-02-19T22:46:56.585Z,21.00
2023-02-19T22:49:26.063Z,21.00
2023-02-19T22:52:11.100Z,21.00
2023-02-19T22:54:40.699Z,20.90
2023-02-19T22:57:09.653Z,20.90
2023-02-19T22:59:38.626Z,20.90
2023-02-19T23:02:07.765Z,20.90
2023-02-19T23:04:36.714Z,20.90
2023-02-19T23:07:07.254Z,20.80
2023-02-19T23:09:36.405Z,20.80
2023-02-19T23:12:10.551Z,20.80
2023-02-19T23:14:39.072Z,20.80
2023-02-19T23:17:08.390Z,20.80
2023-02-19T23:19:38.859Z,20.80
2023-02-19T23:22:07.889Z,20.80
2023-02-19T23:24:36.753Z,20.80
2023-02-19T23:27:05.780Z,20.80
2023-02-19T23:29:35.052Z,20.80
2023-02-19T23:32:04.015Z,20.80
2023-02-19T23:34:33.037Z,20.80
2023-02-19T23:37:03.405Z,20.80
2023-02-19T23:39:32.492Z,20.80
2023-02-19T23:42:01.411Z,20.80
2023-02-19T23:44:30.385Z,20.80
2023-02-19T23:46:59.359Z,20.80
2023-02-19T23:49:28.242Z,20.80
2023-02-19T23:51:57.088Z,20.80
2023-02-19T23:54:26.027Z,20.80
2023-02-19T23:56:55.103Z,20.80
2023-02-19T23:59:24.052Z,20.80
